sensor_id;sensor_type;location;lat;lon;timestamp;pressure;altitude;pressure_sealevel;temperature;humidity
17260;BME280;8746;49.230;9.220;2023-02-18T00:01:28;100794.97;;;11.09;93.63
17260;BME280;8746;49.230;9.220;2023-02-18T00:03:54;100800.19;;;11.10;93.51
17260;BME280;8746;49.230;9.220;2023-02-18T00:06:22;100793.28;;;11.06;93.80
17260;BME280;8746;49.230;9.220;2023-02-18T00:08:48;100794.00;;;11.11;93.56
17260;BME280;8746;49.230;9.220;2023-02-18T00:11:14;100791.41;;;11.10;93.96
17260;BME280;8746;49.230;9.220;2023-02-18T00:13:40;100789.50;;;11.15;93.51
17260;BME280;8746;49.230;9.220;2023-02-18T00:16:11;100805.41;;;11.12;93.68
17260;BME280;8746;49.230;9.220;2023-02-18T00:18:37;100801.09;;;11.09;94.04
17260;BME280;8746;49.230;9.220;2023-02-18T00:21:05;100794.84;;;11.12;93.81
17260;BME280;8746;49.230;9.220;2023-02-18T00:23:31;100791.50;;;11.06;94.02
17260;BME280;8746;49.230;9.220;2023-02-18T00:26:09;100794.97;;;11.09;93.72
17260;BME280;8746;49.230;9.220;2023-02-18T00:28:36;100793.16;;;11.09;94.04
17260;BME280;8746;49.230;9.220;2023-02-18T00:31:09;100794.84;;;11.12;94.13
17260;BME280;8746;49.230;9.220;2023-02-18T00:33:35;100800.84;;;11.17;94.17
17260;BME280;8746;49.230;9.220;2023-02-18T00:36:07;100789.75;;;11.05;94.76
17260;BME280;8746;49.230;9.220;2023-02-18T00:38:33;100800.25;;;11.09;94.85
17260;BME280;8746;49.230;9.220;2023-02-18T00:40:59;100797.63;;;11.07;95.07
17260;BME280;8746;49.230;9.220;2023-02-18T00:43:25;100794.19;;;11.05;95.04
17260;BME280;8746;49.230;9.220;2023-02-18T00:45:50;100793.34;;;11.03;96.42
17260;BME280;8746;49.230;9.220;2023-02-18T00:48:16;100794.44;;;10.96;96.95
17260;BME280;8746;49.230;9.220;2023-02-18T00:50:41;100796.34;;;10.90;96.95
17260;BME280;8746;49.230;9.220;2023-02-18T00:53:07;100789.06;;;10.99;96.06
17260;BME280;8746;49.230;9.220;2023-02-18T00:55:38;100784.75;;;10.96;96.17
17260;BME280;8746;49.230;9.220;2023-02-18T00:58:03;100782.91;;;10.98;96.17
17260;BME280;8746;49.230;9.220;2023-02-18T01:00:29;100779.38;;;10.99;96.32
17260;BME280;8746;49.230;9.220;2023-02-18T01:02:54;100774.19;;;10.96;96.56
17260;BME280;8746;49.230;9.220;2023-02-18T01:05:20;100790.06;;;10.95;96.71
17260;BME280;8746;49.230;9.220;2023-02-18T01:07:45;100784.75;;;10.96;96.23
17260;BME280;8746;49.230;9.220;2023-02-18T01:10:11;100790.88;;;10.97;95.54
17260;BME280;8746;49.230;9.220;2023-02-18T01:12:36;100795.31;;;10.96;96.03
17260;BME280;8746;49.230;9.220;2023-02-18T01:15:04;100788.19;;;10.98;95.32
17260;BME280;8746;49.230;9.220;2023-02-18T01:17:30;100786.47;;;10.97;95.23
17260;BME280;8746;49.230;9.220;2023-02-18T01:19:55;100797.66;;;11.05;94.70
17260;BME280;8746;49.230;9.220;2023-02-18T01:22:21;100793.22;;;11.07;94.54
17260;BME280;8746;49.230;9.220;2023-02-18T01:24:47;100785.34;;;11.06;94.80
17260;BME280;8746;49.230;9.220;2023-02-18T01:27:12;100780.09;;;11.04;94.69
17260;BME280;8746;49.230;9.220;2023-02-18T01:29:38;100779.28;;;11.02;94.76
17260;BME280;8746;49.230;9.220;2023-02-18T01:32:03;100774.03;;;11.01;94.77
17260;BME280;8746;49.230;9.220;2023-02-18T01:34:30;100765.84;;;11.10;94.31
17260;BME280;8746;49.230;9.220;2023-02-18T01:36:55;100769.53;;;11.04;94.46
17260;BME280;8746;49.230;9.220;2023-02-18T01:39:21;100761.72;;;11.01;94.57
17260;BME280;8746;49.230;9.220;2023-02-18T01:41:46;100750.31;;;10.99;94.75
17260;BME280;8746;49.230;9.220;2023-02-18T01:44:25;100757.22;;;11.03;94.46
17260;BME280;8746;49.230;9.220;2023-02-18T01:46:50;100762.56;;;11.02;94.67
17260;BME280;8746;49.230;9.220;2023-02-18T01:49:23;100772.34;;;10.98;94.98
17260;BME280;8746;49.230;9.220;2023-02-18T01:51:56;100777.72;;;10.95;95.44
17260;BME280;8746;49.230;9.220;2023-02-18T01:54:44;100769.75;;;10.97;95.25
17260;BME280;8746;49.230;9.220;2023-02-18T01:57:14;100753.97;;;10.95;95.33
17260;BME280;8746;49.230;9.220;2023-02-18T02:02:21;100748.59;;;10.98;95.16
17260;BME280;8746;49.230;9.220;2023-02-18T02:04:47;100752.97;;;10.99;94.88
17260;BME280;8746;49.230;9.220;2023-02-18T02:07:13;100746.00;;;10.97;94.74
17260;BME280;8746;49.230;9.220;2023-02-18T02:09:40;100741.38;;;11.03;94.06
17260;BME280;8746;49.230;9.220;2023-02-18T02:14:58;100746.41;;;11.13;93.17
17260;BME280;8746;49.230;9.220;2023-02-18T02:32:10;100712.09;;;11.13;91.76
17260;BME280;8746;49.230;9.220;2023-02-18T02:37:33;100718.91;;;11.20;91.24
17260;BME280;8746;49.230;9.220;2023-02-18T02:40:25;100712.84;;;11.16;91.15
17260;BME280;8746;49.230;9.220;2023-02-18T02:48:44;100710.28;;;11.13;91.66
17260;BME280;8746;49.230;9.220;2023-02-18T02:51:17;100710.28;;;11.13;91.86
17260;BME280;8746;49.230;9.220;2023-02-18T02:53:44;100704.16;;;11.13;92.03
17260;BME280;8746;49.230;9.220;2023-02-18T02:56:21;100701.75;;;11.05;93.43
17260;BME280;8746;49.230;9.220;2023-02-18T02:59:09;100700.28;;;10.96;95.12
17260;BME280;8746;49.230;9.220;2023-02-18T03:02:17;100685.66;;;10.84;96.57
17260;BME280;8746;49.230;9.220;2023-02-18T03:07:54;100686.69;;;10.79;96.87
17260;BME280;8746;49.230;9.220;2023-02-18T03:13:16;100688.22;;;10.86;95.37
17260;BME280;8746;49.230;9.220;2023-02-18T03:15:54;100683.59;;;10.94;94.84
17260;BME280;8746;49.230;9.220;2023-02-18T03:18:34;100677.59;;;10.89;94.75
17260;BME280;8746;49.230;9.220;2023-02-18T03:21:18;100680.97;;;10.94;94.53
17260;BME280;8746;49.230;9.220;2023-02-18T03:23:52;100701.94;;;10.99;94.54
17260;BME280;8746;49.230;9.220;2023-02-18T03:26:20;100695.06;;;10.93;95.00
17260;BME280;8746;49.230;9.220;2023-02-18T03:28:48;100703.09;;;10.90;95.50
17260;BME280;8746;49.230;9.220;2023-02-18T03:31:17;100705.03;;;10.83;96.42
17260;BME280;8746;49.230;9.220;2023-02-18T03:33:51;100691.97;;;10.79;96.63
17260;BME280;8746;49.230;9.220;2023-02-18T03:36:20;100698.19;;;10.76;96.75
17260;BME280;8746;49.230;9.220;2023-02-18T03:38:59;100704.34;;;10.77;96.72
17260;BME280;8746;49.230;9.220;2023-02-18T03:41:27;100703.41;;;10.79;96.03
17260;BME280;8746;49.230;9.220;2023-02-18T03:43:58;100706.06;;;10.78;95.81
17260;BME280;8746;49.230;9.220;2023-02-18T03:46:26;100701.56;;;10.81;95.23
17260;BME280;8746;49.230;9.220;2023-02-18T03:48:51;100704.06;;;10.86;94.43
17260;BME280;8746;49.230;9.220;2023-02-18T03:51:17;100690.88;;;10.86;94.34
17260;BME280;8746;49.230;9.220;2023-02-18T03:53:43;100696.88;;;10.91;93.96
17260;BME280;8746;49.230;9.220;2023-02-18T03:56:09;100689.78;;;10.93;93.40
17260;BME280;8746;49.230;9.220;2023-02-18T03:58:34;100687.19;;;10.92;93.46
17260;BME280;8746;49.230;9.220;2023-02-18T04:01:00;100689.72;;;10.96;93.09
17260;BME280;8746;49.230;9.220;2023-02-18T04:03:25;100693.25;;;10.95;93.28
17260;BME280;8746;49.230;9.220;2023-02-18T04:05:51;100697.63;;;10.96;93.26
17260;BME280;8746;49.230;9.220;2023-02-18T04:08:16;100696.97;;;10.88;93.99
17260;BME280;8746;49.230;9.220;2023-02-18T04:10:41;100708.50;;;10.85;94.01
17260;BME280;8746;49.230;9.220;2023-02-18T04:13:07;100696.81;;;10.94;93.96
17260;BME280;8746;49.230;9.220;2023-02-18T04:15:32;100703.84;;;10.94;93.55
17260;BME280;8746;49.230;9.220;2023-02-18T04:17:59;100699.44;;;10.94;93.62
17260;BME280;8746;49.230;9.220;2023-02-18T04:20:24;100706.81;;;10.83;94.23
17260;BME280;8746;49.230;9.220;2023-02-18T04:22:50;100698.91;;;10.83;94.25
17260;BME280;8746;49.230;9.220;2023-02-18T04:25:15;100716.97;;;10.97;94.04
17260;BME280;8746;49.230;9.220;2023-02-18T04:27:40;100713.00;;;10.82;94.44
17260;BME280;8746;49.230;9.220;2023-02-18T04:30:06;100710.91;;;10.93;93.74
17260;BME280;8746;49.230;9.220;2023-02-18T04:32:32;100723.63;;;10.79;95.06
17260;BME280;8746;49.230;9.220;2023-02-18T04:34:57;100729.09;;;10.72;95.24
17260;BME280;8746;49.230;9.220;2023-02-18T04:37:22;100722.84;;;10.77;95.08
17260;BME280;8746;49.230;9.220;2023-02-18T04:39:48;100721.56;;;10.90;94.13
17260;BME280;8746;49.230;9.220;2023-02-18T04:42:13;100711.00;;;10.90;94.34
17260;BME280;8746;49.230;9.220;2023-02-18T04:44:39;100721.88;;;10.79;94.67
17260;BME280;8746;49.230;9.220;2023-02-18T04:47:05;100722.84;;;10.75;94.96
17260;BME280;8746;49.230;9.220;2023-02-18T04:49:31;100720.94;;;10.80;94.46
17260;BME280;8746;49.230;9.220;2023-02-18T04:51:56;100711.53;;;10.71;95.43
17260;BME280;8746;49.230;9.220;2023-02-18T04:54:22;100723.03;;;10.69;95.51
17260;BME280;8746;49.230;9.220;2023-02-18T04:56:47;100715.81;;;10.76;95.43
17260;BME280;8746;49.230;9.220;2023-02-18T04:59:12;100718.66;;;10.68;95.75
17260;BME280;8746;49.230;9.220;2023-02-18T05:01:38;100715.16;;;10.67;96.14
17260;BME280;8746;49.230;9.220;2023-02-18T05:04:03;100710.06;;;10.61;96.34
17260;BME280;8746;49.230;9.220;2023-02-18T05:06:29;100716.78;;;10.71;96.00
17260;BME280;8746;49.230;9.220;2023-02-18T05:08:54;100715.16;;;10.67;96.13
17260;BME280;8746;49.230;9.220;2023-02-18T05:11:19;100713.19;;;10.76;95.90
17260;BME280;8746;49.230;9.220;2023-02-18T05:13:45;100710.75;;;10.68;96.36
17260;BME280;8746;49.230;9.220;2023-02-18T05:16:10;100706.16;;;10.74;96.42
17260;BME280;8746;49.230;9.220;2023-02-18T05:18:36;100706.41;;;10.65;96.71
17260;BME280;8746;49.230;9.220;2023-02-18T05:21:01;100692.25;;;10.68;96.78
17260;BME280;8746;49.230;9.220;2023-02-18T05:23:26;100693.31;;;10.62;96.86
17260;BME280;8746;49.230;9.220;2023-02-18T05:25:53;100693.31;;;10.62;97.18
17260;BME280;8746;49.230;9.220;2023-02-18T05:28:19;100692.63;;;10.55;97.32
17260;BME280;8746;49.230;9.220;2023-02-18T05:30:44;100687.41;;;10.54;97.43
17260;BME280;8746;49.230;9.220;2023-02-18T05:33:10;100682.00;;;10.58;97.27
17260;BME280;8746;49.230;9.220;2023-02-18T05:35:35;100679.47;;;10.54;97.31
17260;BME280;8746;49.230;9.220;2023-02-18T05:38:01;100681.16;;;10.56;97.27
17260;BME280;8746;49.230;9.220;2023-02-18T05:40:26;100690.88;;;10.56;97.51
17260;BME280;8746;49.230;9.220;2023-02-18T05:42:51;100691.59;;;10.61;97.04
17260;BME280;8746;49.230;9.220;2023-02-18T05:45:17;100691.66;;;10.58;97.22
17260;BME280;8746;49.230;9.220;2023-02-18T05:47:42;100682.91;;;10.57;97.28
17260;BME280;8746;49.230;9.220;2023-02-18T05:50:08;100677.44;;;10.64;96.94
17260;BME280;8746;49.230;9.220;2023-02-18T05:52:33;100687.03;;;10.66;96.43
17260;BME280;8746;49.230;9.220;2023-02-18T05:54:59;100687.16;;;10.63;96.66
17260;BME280;8746;49.230;9.220;2023-02-18T05:57:24;100682.91;;;10.57;96.69
17260;BME280;8746;49.230;9.220;2023-02-18T05:59:50;100685.47;;;10.59;96.51
17260;BME280;8746;49.230;9.220;2023-02-18T06:02:15;100696.81;;;10.63;95.93
17260;BME280;8746;49.230;9.220;2023-02-18T06:04:41;100702.94;;;10.65;95.93
17260;BME280;8746;49.230;9.220;2023-02-18T06:07:06;100707.31;;;10.64;95.72
17260;BME280;8746;49.230;9.220;2023-02-18T06:09:31;100701.31;;;10.59;96.30
17260;BME280;8746;49.230;9.220;2023-02-18T06:11:57;100699.41;;;10.64;95.92
17260;BME280;8746;49.230;9.220;2023-02-18T06:14:23;100706.25;;;10.71;95.98
17260;BME280;8746;49.230;9.220;2023-02-18T06:16:48;100707.16;;;10.70;95.24
17260;BME280;8746;49.230;9.220;2023-02-18T06:19:14;100711.69;;;10.65;95.75
17260;BME280;8746;49.230;9.220;2023-02-18T06:21:39;100701.06;;;10.68;95.55
17260;BME280;8746;49.230;9.220;2023-02-18T06:24:05;100696.75;;;10.66;95.85
17260;BME280;8746;49.230;9.220;2023-02-18T06:26:30;100700.19;;;10.68;95.88
17260;BME280;8746;49.230;9.220;2023-02-18T06:28:55;100703.59;;;10.73;95.47
17260;BME280;8746;49.230;9.220;2023-02-18T06:31:21;100695.84;;;10.65;95.47
17260;BME280;8746;49.230;9.220;2023-02-18T06:33:46;100693.31;;;10.62;95.85
17260;BME280;8746;49.230;9.220;2023-02-18T06:36:12;100699.22;;;10.70;95.48
17260;BME280;8746;49.230;9.220;2023-02-18T06:38:40;100695.38;;;10.82;94.71
17260;BME280;8746;49.230;9.220;2023-02-18T06:41:06;100692.97;;;10.74;94.97
17260;BME280;8746;49.230;9.220;2023-02-18T06:43:32;100689.63;;;10.68;95.54
17260;BME280;8746;49.230;9.220;2023-02-18T06:45:57;100680.81;;;10.69;95.24
17260;BME280;8746;49.230;9.220;2023-02-18T06:48:23;100688.00;;;10.64;95.53
17260;BME280;8746;49.230;9.220;2023-02-18T06:50:49;100678.22;;;10.67;95.28
17260;BME280;8746;49.230;9.220;2023-02-18T06:53:14;100686.22;;;10.64;95.71
17260;BME280;8746;49.230;9.220;2023-02-18T06:55:43;100681.88;;;10.63;95.65
17260;BME280;8746;49.230;9.220;2023-02-18T06:58:10;100679.22;;;10.63;95.66
17260;BME280;8746;49.230;9.220;2023-02-18T07:00:35;100672.09;;;10.67;95.60
17260;BME280;8746;49.230;9.220;2023-02-18T07:03:01;100662.56;;;10.61;96.07
17260;BME280;8746;49.230;9.220;2023-02-18T07:05:27;100674.06;;;10.58;96.49
17260;BME280;8746;49.230;9.220;2023-02-18T07:07:52;100664.13;;;10.68;95.66
17260;BME280;8746;49.230;9.220;2023-02-18T07:10:18;100665.94;;;10.66;95.46
17260;BME280;8746;49.230;9.220;2023-02-18T07:12:43;100666.75;;;10.68;95.46
17260;BME280;8746;49.230;9.220;2023-02-18T07:15:09;100665.97;;;10.65;95.57
17260;BME280;8746;49.230;9.220;2023-02-18T07:17:35;100653.56;;;10.68;94.91
17260;BME280;8746;49.230;9.220;2023-02-18T07:20:00;100654.09;;;10.80;94.48
17260;BME280;8746;49.230;9.220;2023-02-18T07:22:26;100646.69;;;10.93;94.06
17260;BME280;8746;49.230;9.220;2023-02-18T07:24:52;100643.16;;;10.92;93.75
17260;BME280;8746;49.230;9.220;2023-02-18T07:27:18;100642.28;;;10.93;93.61
17260;BME280;8746;49.230;9.220;2023-02-18T07:29:44;100641.50;;;10.89;93.52
17260;BME280;8746;49.230;9.220;2023-02-18T07:32:14;100643.09;;;10.95;93.40
17260;BME280;8746;49.230;9.220;2023-02-18T07:34:41;100640.34;;;10.98;92.88
17260;BME280;8746;49.230;9.220;2023-02-18T07:37:12;100645.44;;;11.04;93.13
17260;BME280;8746;49.230;9.220;2023-02-18T07:39:42;100636.75;;;11.01;92.84
17260;BME280;8746;49.230;9.220;2023-02-18T07:42:08;100641.25;;;10.97;93.01
17260;BME280;8746;49.230;9.220;2023-02-18T07:44:35;100635.19;;;10.94;93.18
17260;BME280;8746;49.230;9.220;2023-02-18T07:47:01;100637.22;;;10.85;93.60
17260;BME280;8746;49.230;9.220;2023-02-18T07:49:27;100621.28;;;10.88;93.35
17260;BME280;8746;49.230;9.220;2023-02-18T07:51:53;100630.94;;;10.89;92.73
17260;BME280;8746;49.230;9.220;2023-02-18T07:54:18;100619.28;;;10.97;92.58
17260;BME280;8746;49.230;9.220;2023-02-18T07:56:44;100620.47;;;11.15;91.78
17260;BME280;8746;49.230;9.220;2023-02-18T07:59:11;100619.03;;;11.04;92.08
17260;BME280;8746;49.230;9.220;2023-02-18T08:01:37;100626.53;;;11.18;91.61
17260;BME280;8746;49.230;9.220;2023-02-18T08:04:03;100616.13;;;11.14;90.91
17260;BME280;8746;49.230;9.220;2023-02-18T08:06:39;100616.41;;;11.31;90.56
17260;BME280;8746;49.230;9.220;2023-02-18T08:09:05;100611.47;;;11.22;90.67
17260;BME280;8746;49.230;9.220;2023-02-18T08:11:32;100594.31;;;11.34;90.35
17260;BME280;8746;49.230;9.220;2023-02-18T08:13:58;100613.50;;;11.41;89.71
17260;BME280;8746;49.230;9.220;2023-02-18T08:16:24;100615.44;;;11.34;89.77
17260;BME280;8746;49.230;9.220;2023-02-18T08:18:51;100614.19;;;11.46;88.86
17260;BME280;8746;49.230;9.220;2023-02-18T08:21:18;100609.38;;;11.59;88.12
17260;BME280;8746;49.230;9.220;2023-02-18T08:23:44;100616.78;;;11.47;88.28
17260;BME280;8746;49.230;9.220;2023-02-18T08:26:10;100616.53;;;11.55;87.91
17260;BME280;8746;49.230;9.220;2023-02-18T08:28:35;100610.44;;;11.53;87.78
17260;BME280;8746;49.230;9.220;2023-02-18T08:31:01;100600.72;;;11.53;87.49
17260;BME280;8746;49.230;9.220;2023-02-18T08:33:27;100604.94;;;11.59;86.79
17260;BME280;8746;49.230;9.220;2023-02-18T08:35:53;100606.41;;;11.68;86.30
17260;BME280;8746;49.230;9.220;2023-02-18T08:38:19;100598.53;;;11.66;85.94
17260;BME280;8746;49.230;9.220;2023-02-18T08:40:45;100596.75;;;11.67;85.87
17260;BME280;8746;49.230;9.220;2023-02-18T08:43:11;100601.13;;;11.68;85.28
17260;BME280;8746;49.230;9.220;2023-02-18T08:45:37;100591.44;;;11.68;85.86
17260;BME280;8746;49.230;9.220;2023-02-18T08:48:07;100594.38;;;11.59;85.11
17260;BME280;8746;49.230;9.220;2023-02-18T08:50:33;100595.06;;;11.64;84.90
17260;BME280;8746;49.230;9.220;2023-02-18T08:52:59;100585.31;;;11.66;85.01
17260;BME280;8746;49.230;9.220;2023-02-18T08:55:28;100607.06;;;11.75;84.92
17260;BME280;8746;49.230;9.220;2023-02-18T08:57:54;100590.41;;;11.73;84.66
17260;BME280;8746;49.230;9.220;2023-02-18T09:00:20;100586.56;;;11.81;84.39
17260;BME280;8746;49.230;9.220;2023-02-18T09:02:45;100585.66;;;11.82;84.35
17260;BME280;8746;49.230;9.220;2023-02-18T09:05:12;100574.09;;;11.85;84.25
17260;BME280;8746;49.230;9.220;2023-02-18T09:07:37;100582.28;;;12.04;83.21
17260;BME280;8746;49.230;9.220;2023-02-18T09:10:03;100569.63;;;12.12;82.66
17260;BME280;8746;49.230;9.220;2023-02-18T09:12:29;100581.13;;;12.11;82.74
17260;BME280;8746;49.230;9.220;2023-02-18T09:14:55;100568.91;;;12.32;81.80
17260;BME280;8746;49.230;9.220;2023-02-18T09:17:21;100573.38;;;12.30;82.04
17260;BME280;8746;49.230;9.220;2023-02-18T09:19:46;100569.13;;;12.26;81.82
17260;BME280;8746;49.230;9.220;2023-02-18T09:22:12;100564.28;;;12.14;82.43
17260;BME280;8746;49.230;9.220;2023-02-18T09:24:38;100565.19;;;12.37;81.45
17260;BME280;8746;49.230;9.220;2023-02-18T09:27:04;100555.09;;;12.24;81.88
17260;BME280;8746;49.230;9.220;2023-02-18T09:29:31;100560.13;;;12.30;82.20
17260;BME280;8746;49.230;9.220;2023-02-18T09:31:59;100570.50;;;12.37;81.16
17260;BME280;8746;49.230;9.220;2023-02-18T09:34:26;100574.19;;;12.32;81.55
17260;BME280;8746;49.230;9.220;2023-02-18T09:36:51;100562.78;;;12.30;81.36
17260;BME280;8746;49.230;9.220;2023-02-18T09:39:17;100562.91;;;12.51;81.47
17260;BME280;8746;49.230;9.220;2023-02-18T09:44:17;100578.66;;;12.30;82.09
17260;BME280;8746;49.230;9.220;2023-02-18T09:46:49;100575.22;;;12.28;81.56
17260;BME280;8746;49.230;9.220;2023-02-18T09:49:20;100578.19;;;12.43;81.81
17260;BME280;8746;49.230;9.220;2023-02-18T09:51:46;100583.50;;;12.43;81.77
17260;BME280;8746;49.230;9.220;2023-02-18T09:54:15;100598.81;;;12.34;81.49
17260;BME280;8746;49.230;9.220;2023-02-18T09:56:42;100594.66;;;12.51;80.61
17260;BME280;8746;49.230;9.220;2023-02-18T09:59:16;100591.66;;;12.37;81.53
17260;BME280;8746;49.230;9.220;2023-02-18T10:01:43;100595.69;;;12.23;82.17
17260;BME280;8746;49.230;9.220;2023-02-18T10:04:21;100583.16;;;12.28;81.32
17260;BME280;8746;49.230;9.220;2023-02-18T10:06:49;100595.41;;;12.31;81.67
17260;BME280;8746;49.230;9.220;2023-02-18T10:09:19;100601.50;;;12.33;81.02
17260;BME280;8746;49.230;9.220;2023-02-18T10:11:49;100592.00;;;12.51;80.33
17260;BME280;8746;49.230;9.220;2023-02-18T10:14:16;100583.09;;;12.54;80.21
17260;BME280;8746;49.230;9.220;2023-02-18T10:16:42;100583.16;;;12.52;80.12
17260;BME280;8746;49.230;9.220;2023-02-18T10:21:43;100575.97;;;12.56;80.17
17260;BME280;8746;49.230;9.220;2023-02-18T10:24:33;100577.31;;;12.66;79.71
17260;BME280;8746;49.230;9.220;2023-02-18T10:27:00;100566.63;;;12.69;79.05
17260;BME280;8746;49.230;9.220;2023-02-18T10:29:27;100572.78;;;12.70;78.81
17260;BME280;8746;49.230;9.220;2023-02-18T10:34:53;100578.56;;;12.79;77.10
17260;BME280;8746;49.230;9.220;2023-02-18T10:42:54;100565.13;;;12.62;77.38
17260;BME280;8746;49.230;9.220;2023-02-18T10:48:06;100568.63;;;12.62;77.18
17260;BME280;8746;49.230;9.220;2023-02-18T10:50:39;100558.28;;;12.56;77.48
17260;BME280;8746;49.230;9.220;2023-02-18T10:53:36;100567.47;;;12.70;76.92
17260;BME280;8746;49.230;9.220;2023-02-18T10:56:05;100562.31;;;12.66;76.83
17260;BME280;8746;49.230;9.220;2023-02-18T10:58:46;100558.75;;;12.68;77.73
17260;BME280;8746;49.230;9.220;2023-02-18T11:01:15;100578.94;;;12.70;77.05
17260;BME280;8746;49.230;9.220;2023-02-18T11:06:25;100565.47;;;12.53;78.56
17260;BME280;8746;49.230;9.220;2023-02-18T11:08:55;100553.69;;;12.61;78.34
17260;BME280;8746;49.230;9.220;2023-02-18T11:11:31;100560.50;;;12.67;78.69
17260;BME280;8746;49.230;9.220;2023-02-18T11:14:00;100558.25;;;12.80;78.73
17260;BME280;8746;49.230;9.220;2023-02-18T11:16:40;100547.22;;;12.69;78.56
17260;BME280;8746;49.230;9.220;2023-02-18T11:22:49;100540.50;;;12.60;77.77
17260;BME280;8746;49.230;9.220;2023-02-18T11:25:02;100544.38;;;12.51;77.81
17260;BME280;8746;49.230;9.220;2023-02-18T11:27:41;100534.94;;;12.44;77.68
17260;BME280;8746;49.230;9.220;2023-02-18T11:30:38;100543.88;;;12.41;77.64
17260;BME280;8746;49.230;9.220;2023-02-18T11:35:55;100544.38;;;12.51;76.33
17260;BME280;8746;49.230;9.220;2023-02-18T11:38:25;100522.03;;;12.58;73.59
17260;BME280;8746;49.230;9.220;2023-02-18T11:40:54;100523.16;;;12.75;71.26
17260;BME280;8746;49.230;9.220;2023-02-18T11:43:21;100525.94;;;12.72;70.53
17260;BME280;8746;49.230;9.220;2023-02-18T11:45:46;100527.59;;;12.74;70.26
17260;BME280;8746;49.230;9.220;2023-02-18T11:48:17;100524.88;;;12.76;70.51
17260;BME280;8746;49.230;9.220;2023-02-18T11:50:43;100513.25;;;12.80;70.45
17260;BME280;8746;49.230;9.220;2023-02-18T11:53:52;100516.16;;;12.74;70.78
17260;BME280;8746;49.230;9.220;2023-02-18T11:56:18;100508.50;;;12.66;71.95
17260;BME280;8746;49.230;9.220;2023-02-18T11:58:47;100520.22;;;12.60;72.88
17260;BME280;8746;49.230;9.220;2023-02-18T12:01:26;100509.78;;;12.56;72.63
17260;BME280;8746;49.230;9.220;2023-02-18T12:04:07;100507.00;;;12.59;73.22
17260;BME280;8746;49.230;9.220;2023-02-18T12:09:38;100499.88;;;12.61;73.46
17260;BME280;8746;49.230;9.220;2023-02-18T12:12:10;100499.78;;;12.64;74.03
17260;BME280;8746;49.230;9.220;2023-02-18T12:14:37;100495.56;;;12.58;74.52
17260;BME280;8746;49.230;9.220;2023-02-18T12:40:05;100494.97;;;12.74;71.49
17260;BME280;8746;49.230;9.220;2023-02-18T12:45:33;100470.00;;;12.79;70.68
17260;BME280;8746;49.230;9.220;2023-02-18T12:48:34;100469.91;;;12.82;70.26
17260;BME280;8746;49.230;9.220;2023-02-18T12:54:17;100462.81;;;12.83;70.32
17260;BME280;8746;49.230;9.220;2023-02-18T13:05:24;100463.84;;;13.22;68.80
17260;BME280;8746;49.230;9.220;2023-02-18T13:10:53;100457.09;;;13.35;67.55
17260;BME280;8746;49.230;9.220;2023-02-18T13:13:25;100471.59;;;13.26;68.05
17260;BME280;8746;49.230;9.220;2023-02-18T13:16:12;100455.50;;;13.31;68.47
17260;BME280;8746;49.230;9.220;2023-02-18T13:18:55;100449.34;;;13.51;68.16
17260;BME280;8746;49.230;9.220;2023-02-18T13:21:24;100456.22;;;13.35;68.00
17260;BME280;8746;49.230;9.220;2023-02-18T13:26:20;100454.88;;;13.04;69.01
17260;BME280;8746;49.230;9.220;2023-02-18T13:34:03;100432.97;;;13.00;69.72
17260;BME280;8746;49.230;9.220;2023-02-18T13:36:43;100440.91;;;13.00;69.97
17260;BME280;8746;49.230;9.220;2023-02-18T13:39:15;100440.47;;;13.11;69.74
17260;BME280;8746;49.230;9.220;2023-02-18T13:41:49;100442.91;;;13.15;69.87
17260;BME280;8746;49.230;9.220;2023-02-18T13:46:51;100435.56;;;13.22;69.72
17260;BME280;8746;49.230;9.220;2023-02-18T13:49:24;100428.78;;;13.15;70.30
17260;BME280;8746;49.230;9.220;2023-02-18T13:51:52;100431.97;;;13.23;69.80
17260;BME280;8746;49.230;9.220;2023-02-18T13:54:44;100428.94;;;13.33;68.48
17260;BME280;8746;49.230;9.220;2023-02-18T13:57:16;100435.81;;;13.37;68.43
17260;BME280;8746;49.230;9.220;2023-02-18T13:59:46;100432.25;;;13.58;67.85
17260;BME280;8746;49.230;9.220;2023-02-18T14:10:01;100422.47;;;13.99;65.50
17260;BME280;8746;49.230;9.220;2023-02-18T14:25:54;100423.75;;;14.09;64.08
17260;BME280;8746;49.230;9.220;2023-02-18T14:32:00;100420.16;;;13.91;64.75
17260;BME280;8746;49.230;9.220;2023-02-18T14:35:01;100401.03;;;13.84;63.77
17260;BME280;8746;49.230;9.220;2023-02-18T14:37:36;100397.72;;;13.98;63.67
17260;BME280;8746;49.230;9.220;2023-02-18T14:43:07;100400.53;;;13.95;62.46
17260;BME280;8746;49.230;9.220;2023-02-18T14:46:02;100406.09;;;13.70;63.81
17260;BME280;8746;49.230;9.220;2023-02-18T14:51:15;100408.13;;;13.65;64.45
17260;BME280;8746;49.230;9.220;2023-02-18T14:53:44;100403.66;;;13.46;65.27
17260;BME280;8746;49.230;9.220;2023-02-18T14:56:13;100406.81;;;13.34;66.31
17260;BME280;8746;49.230;9.220;2023-02-18T14:58:47;100407.94;;;13.28;66.15
17260;BME280;8746;49.230;9.220;2023-02-18T15:01:31;100409.13;;;13.21;67.58
17260;BME280;8746;49.230;9.220;2023-02-18T15:03:57;100409.66;;;13.08;67.19
17260;BME280;8746;49.230;9.220;2023-02-18T15:08:58;100415.75;;;12.90;68.32
17260;BME280;8746;49.230;9.220;2023-02-18T15:11:34;100407.09;;;12.86;68.03
17260;BME280;8746;49.230;9.220;2023-02-18T15:14:00;100406.28;;;12.84;68.83
17260;BME280;8746;49.230;9.220;2023-02-18T15:16:29;100411.09;;;12.74;68.39
17260;BME280;8746;49.230;9.220;2023-02-18T15:18:59;100410.09;;;12.77;67.67
17260;BME280;8746;49.230;9.220;2023-02-18T15:21:36;100426.25;;;12.71;67.43
17260;BME280;8746;49.230;9.220;2023-02-18T15:24:08;100425.59;;;12.65;67.59
17260;BME280;8746;49.230;9.220;2023-02-18T15:26:41;100424.66;;;12.66;68.31
17260;BME280;8746;49.230;9.220;2023-02-18T15:29:17;100429.09;;;12.66;68.26
17260;BME280;8746;49.230;9.220;2023-02-18T15:31:47;100438.16;;;12.60;67.74
17260;BME280;8746;49.230;9.220;2023-02-18T15:36:53;100436.38;;;12.39;68.06
17260;BME280;8746;49.230;9.220;2023-02-18T15:39:20;100431.88;;;12.41;68.19